Limeport, Pennsylvania
Current Conditions -  °F | °C
As of 12:55 PM on Thursday 27 Nov 2014 (Local Time) from KXLL Reporting Station
Broken Clouds Broken Clouds  
Wind Chill: 29°   Ceiling: 2900
Heat Index: 36°   Visibility: 10mi
Dew Point: 28°   Wind: 8mph
Humidity: 75%   Direction: 320°NW
Pressure: 30.02"   Gusts: NA
Location:  40.51°N, 75.45°W
Report Text: KXLL 271755Z AUTO 32007KT 10SM SCT024 BKN029 02/M02 A3002 RMK AO2
Loading
Personal Weather Stations






























Interactive Weather Map New forecast layout! Learn more

10-Day Weather Forecast

Advertisements
Track Severe Weather on mobile